sensor_id;sensor_type;location;lat;lon;timestamp;pressure;altitude;pressure_sealevel;temperature;humidity
64614;BME280;51025;37.772;-122.432;2023-06-22T00:00:07;101012.74;;;21.94;26.94
64614;BME280;51025;37.772;-122.432;2023-06-22T00:02:36;101012.85;;;21.74;27.12
64614;BME280;51025;37.772;-122.432;2023-06-22T00:05:04;101007.73;;;21.83;27.10
64614;BME280;51025;37.772;-122.432;2023-06-22T00:07:32;101000.49;;;21.15;26.99
64614;BME280;51025;37.772;-122.432;2023-06-22T00:10:01;101006.34;;;21.56;27.00
64614;BME280;51025;37.772;-122.432;2023-06-22T00:12:29;101000.89;;;21.22;26.94
64614;BME280;51025;37.772;-122.432;2023-06-22T00:14:57;101000.13;;;22.18;26.88
64614;BME280;51025;37.772;-122.432;2023-06-22T00:17:25;100997.01;;;22.30;26.75
64614;BME280;51025;37.772;-122.432;2023-06-22T00:19:53;100998.14;;;21.45;27.10
64614;BME280;51025;37.772;-122.432;2023-06-22T00:22:21;101001.91;;;21.22;27.02
64614;BME280;51025;37.772;-122.432;2023-06-22T00:24:50;100991.32;;;21.64;27.00
64614;BME280;51025;37.772;-122.432;2023-06-22T00:27:18;100981.66;;;21.73;26.88
64614;BME280;51025;37.772;-122.432;2023-06-22T00:29:46;100979.39;;;21.81;26.86
64614;BME280;51025;37.772;-122.432;2023-06-22T00:32:15;100972.94;;;22.00;27.02
64614;BME280;51025;37.772;-122.432;2023-06-22T00:34:43;100973.43;;;21.51;26.79
64614;BME280;51025;37.772;-122.432;2023-06-22T00:37:11;100966.25;;;22.35;26.77
64614;BME280;51025;37.772;-122.432;2023-06-22T00:39:40;100969.26;;;22.27;26.81
64614;BME280;51025;37.772;-122.432;2023-06-22T00:42:08;100963.91;;;22.21;26.56
64614;BME280;51025;37.772;-122.432;2023-06-22T00:44:37;100960.58;;;21.48;26.97
64614;BME280;51025;37.772;-122.432;2023-06-22T00:47:06;100959.89;;;22.39;26.98
64614;BME280;51025;37.772;-122.432;2023-06-22T00:49:34;100959.63;;;21.50;27.20
64614;BME280;51025;37.772;-122.432;2023-06-22T00:52:04;100956.51;;;22.28;27.56
64614;BME280;51025;37.772;-122.432;2023-06-22T00:54:33;100957.34;;;21.87;27.84
64614;BME280;51025;37.772;-122.432;2023-06-22T00:57:01;100953.53;;;22.06;28.39
64614;BME280;51025;37.772;-122.432;2023-06-22T00:59:29;100955.51;;;21.55;28.46
64614;BME280;51025;37.772;-122.432;2023-06-22T01:01:58;100954.74;;;22.44;28.35
64614;BME280;51025;37.772;-122.432;2023-06-22T01:04:35;100947.02;;;22.63;28.68
64614;BME280;51025;37.772;-122.432;2023-06-22T01:07:13;100949.42;;;23.27;28.60
64614;BME280;51025;37.772;-122.432;2023-06-22T01:09:49;100943.88;;;22.40;29.42
64614;BME280;51025;37.772;-122.432;2023-06-22T01:12:20;100946.21;;;22.42;28.91
64614;BME280;51025;37.772;-122.432;2023-06-22T01:14:53;100943.63;;;23.37;28.79
64614;BME280;51025;37.772;-122.432;2023-06-22T01:17:23;100940.30;;;22.27;28.76
64614;BME280;51025;37.772;-122.432;2023-06-22T01:19:55;100938.61;;;24.19;28.02
64614;BME280;51025;37.772;-122.432;2023-06-22T01:22:27;100933.87;;;23.88;27.77
64614;BME280;51025;37.772;-122.432;2023-06-22T01:25:07;100937.73;;;23.81;27.97
64614;BME280;51025;37.772;-122.432;2023-06-22T01:27:45;100935.70;;;22.97;28.31
64614;BME280;51025;37.772;-122.432;2023-06-22T01:30:19;100937.25;;;23.09;27.77
64614;BME280;51025;37.772;-122.432;2023-06-22T01:32:48;100931.52;;;23.50;27.64
64614;BME280;51025;37.772;-122.432;2023-06-22T01:35:18;100943.03;;;23.51;27.26
64614;BME280;51025;37.772;-122.432;2023-06-22T01:37:49;100929.48;;;23.67;27.44
64614;BME280;51025;37.772;-122.432;2023-06-22T01:40:19;100932.42;;;23.54;27.49
64614;BME280;51025;37.772;-122.432;2023-06-22T01:42:48;100929.00;;;23.67;27.38
64614;BME280;51025;37.772;-122.432;2023-06-22T01:45:19;100924.68;;;23.06;27.47
64614;BME280;51025;37.772;-122.432;2023-06-22T01:47:48;100930.77;;;23.37;27.51
64614;BME280;51025;37.772;-122.432;2023-06-22T01:50:17;100938.88;;;23.23;27.61
64614;BME280;51025;37.772;-122.432;2023-06-22T01:52:45;100936.84;;;23.38;27.47
64614;BME280;51025;37.772;-122.432;2023-06-22T01:55:13;100940.46;;;23.16;27.57
64614;BME280;51025;37.772;-122.432;2023-06-22T01:57:42;100933.61;;;23.26;27.47
64614;BME280;51025;37.772;-122.432;2023-06-22T02:00:13;100931.83;;;23.51;27.24
64614;BME280;51025;37.772;-122.432;2023-06-22T02:02:52;100940.69;;;23.25;27.45
64614;BME280;51025;37.772;-122.432;2023-06-22T02:05:25;100929.32;;;22.68;27.28
64614;BME280;51025;37.772;-122.432;2023-06-22T02:08:06;100932.49;;;23.46;27.22
64614;BME280;51025;37.772;-122.432;2023-06-22T02:10:37;100924.21;;;22.67;27.40
64614;BME280;51025;37.772;-122.432;2023-06-22T02:13:07;100927.67;;;22.93;27.13
64614;BME280;51025;37.772;-122.432;2023-06-22T02:15:37;100931.79;;;22.71;27.25
64614;BME280;51025;37.772;-122.432;2023-06-22T02:18:06;100917.93;;;23.20;27.10
64614;BME280;51025;37.772;-122.432;2023-06-22T02:20:37;100928.75;;;23.10;27.15
64614;BME280;51025;37.772;-122.432;2023-06-22T02:23:06;100920.93;;;23.04;27.20
64614;BME280;51025;37.772;-122.432;2023-06-22T02:25:35;100927.58;;;23.01;27.17
64614;BME280;51025;37.772;-122.432;2023-06-22T02:28:04;100920.61;;;23.01;27.15
64614;BME280;51025;37.772;-122.432;2023-06-22T02:30:32;100923.39;;;23.08;26.97
64614;BME280;51025;37.772;-122.432;2023-06-22T02:33:00;100917.38;;;23.28;27.14
64614;BME280;51025;37.772;-122.432;2023-06-22T02:35:29;100920.49;;;22.79;27.24
64614;BME280;51025;37.772;-122.432;2023-06-22T02:37:57;100921.76;;;22.78;27.30
64614;BME280;51025;37.772;-122.432;2023-06-22T02:40:25;100920.92;;;22.61;27.03
64614;BME280;51025;37.772;-122.432;2023-06-22T02:42:54;100920.06;;;22.77;27.11
64614;BME280;51025;37.772;-122.432;2023-06-22T02:45:23;100917.30;;;22.51;26.78
64614;BME280;51025;37.772;-122.432;2023-06-22T02:47:51;100925.53;;;22.79;27.20
64614;BME280;51025;37.772;-122.432;2023-06-22T02:50:20;100921.74;;;21.94;27.27
64614;BME280;51025;37.772;-122.432;2023-06-22T02:52:49;100917.03;;;22.63;27.31
64614;BME280;51025;37.772;-122.432;2023-06-22T02:55:17;100917.10;;;22.77;27.22
64614;BME280;51025;37.772;-122.432;2023-06-22T02:57:45;100912.96;;;22.63;27.43
64614;BME280;51025;37.772;-122.432;2023-06-22T03:00:15;100918.14;;;22.61;27.41
64614;BME280;51025;37.772;-122.432;2023-06-22T03:02:44;100912.43;;;22.82;27.47
64614;BME280;51025;37.772;-122.432;2023-06-22T03:05:12;100928.28;;;22.47;27.74
64614;BME280;51025;37.772;-122.432;2023-06-22T03:07:42;100928.04;;;22.58;27.40
64614;BME280;51025;37.772;-122.432;2023-06-22T03:10:12;100923.57;;;22.37;27.71
64614;BME280;51025;37.772;-122.432;2023-06-22T03:12:41;100917.96;;;21.92;27.80
64614;BME280;51025;37.772;-122.432;2023-06-22T03:15:11;100922.38;;;22.10;27.90
64614;BME280;51025;37.772;-122.432;2023-06-22T03:17:40;100925.88;;;22.11;27.79
64614;BME280;51025;37.772;-122.432;2023-06-22T03:20:09;100924.84;;;21.85;27.90
64614;BME280;51025;37.772;-122.432;2023-06-22T03:22:39;100927.79;;;21.75;27.64
64614;BME280;51025;37.772;-122.432;2023-06-22T03:25:09;100928.52;;;21.54;27.80
64614;BME280;51025;37.772;-122.432;2023-06-22T03:27:37;100928.29;;;21.61;27.75
64614;BME280;51025;37.772;-122.432;2023-06-22T03:30:09;100927.11;;;22.06;27.97
64614;BME280;51025;37.772;-122.432;2023-06-22T03:32:38;100930.10;;;21.31;27.98
64614;BME280;51025;37.772;-122.432;2023-06-22T03:35:07;100930.62;;;21.55;27.65
64614;BME280;51025;37.772;-122.432;2023-06-22T03:37:35;100931.04;;;21.59;27.57
64614;BME280;51025;37.772;-122.432;2023-06-22T03:40:04;100929.12;;;22.21;27.70
64614;BME280;51025;37.772;-122.432;2023-06-22T03:42:34;100934.15;;;21.88;27.61
64614;BME280;51025;37.772;-122.432;2023-06-22T03:45:03;100939.10;;;22.08;27.90
64614;BME280;51025;37.772;-122.432;2023-06-22T03:47:32;100929.40;;;22.26;27.62
64614;BME280;51025;37.772;-122.432;2023-06-22T03:50:00;100939.93;;;21.74;28.15
64614;BME280;51025;37.772;-122.432;2023-06-22T03:52:29;100938.50;;;21.99;28.43
64614;BME280;51025;37.772;-122.432;2023-06-22T03:54:57;100941.53;;;22.60;28.23
64614;BME280;51025;37.772;-122.432;2023-06-22T03:57:25;100943.44;;;21.30;28.75
64614;BME280;51025;37.772;-122.432;2023-06-22T03:59:56;100946.47;;;22.32;28.48
64614;BME280;51025;37.772;-122.432;2023-06-22T04:02:24;100946.44;;;22.17;28.38
64614;BME280;51025;37.772;-122.432;2023-06-22T04:04:52;100951.35;;;22.33;28.69
64614;BME280;51025;37.772;-122.432;2023-06-22T04:07:20;100949.58;;;21.60;29.19
64614;BME280;51025;37.772;-122.432;2023-06-22T04:09:49;100956.31;;;22.59;29.27
64614;BME280;51025;37.772;-122.432;2023-06-22T04:12:17;100955.57;;;22.30;29.14
64614;BME280;51025;37.772;-122.432;2023-06-22T04:14:45;100961.10;;;22.70;29.65
64614;BME280;51025;37.772;-122.432;2023-06-22T04:17:15;100969.02;;;22.63;29.39
64614;BME280;51025;37.772;-122.432;2023-06-22T04:19:43;100961.28;;;22.51;30.23
64614;BME280;51025;37.772;-122.432;2023-06-22T04:22:11;100980.61;;;22.28;30.21
64614;BME280;51025;37.772;-122.432;2023-06-22T04:24:39;100986.62;;;22.27;30.04
64614;BME280;51025;37.772;-122.432;2023-06-22T04:27:08;100985.44;;;22.23;30.19
64614;BME280;51025;37.772;-122.432;2023-06-22T04:29:36;100987.10;;;21.94;29.99
64614;BME280;51025;37.772;-122.432;2023-06-22T04:32:06;100983.43;;;22.24;30.04
64614;BME280;51025;37.772;-122.432;2023-06-22T04:34:35;100983.35;;;21.90;29.81
64614;BME280;51025;37.772;-122.432;2023-06-22T04:37:04;100982.47;;;22.58;29.45
64614;BME280;51025;37.772;-122.432;2023-06-22T04:39:32;100984.79;;;22.65;29.32
64614;BME280;51025;37.772;-122.432;2023-06-22T04:42:01;100985.72;;;22.33;29.68
64614;BME280;51025;37.772;-122.432;2023-06-22T04:44:30;100992.30;;;22.54;29.06
64614;BME280;51025;37.772;-122.432;2023-06-22T04:47:00;100993.99;;;22.62;28.98
64614;BME280;51025;37.772;-122.432;2023-06-22T04:49:29;100990.32;;;22.57;28.88
64614;BME280;51025;37.772;-122.432;2023-06-22T04:52:04;100992.02;;;22.55;28.83
64614;BME280;51025;37.772;-122.432;2023-06-22T04:54:33;100994.44;;;22.44;28.76
64614;BME280;51025;37.772;-122.432;2023-06-22T04:57:02;100998.11;;;22.26;28.97
64614;BME280;51025;37.772;-122.432;2023-06-22T04:59:31;101004.20;;;22.82;28.71
64614;BME280;51025;37.772;-122.432;2023-06-22T05:02:01;101008.60;;;21.90;28.77
64614;BME280;51025;37.772;-122.432;2023-06-22T05:04:30;101010.42;;;21.91;28.63
64614;BME280;51025;37.772;-122.432;2023-06-22T05:06:59;101006.65;;;22.19;28.72
64614;BME280;51025;37.772;-122.432;2023-06-22T05:09:28;101003.36;;;22.34;28.53
64614;BME280;51025;37.772;-122.432;2023-06-22T05:11:57;100998.30;;;22.87;28.27
64614;BME280;51025;37.772;-122.432;2023-06-22T05:14:25;100989.23;;;21.99;28.30
64614;BME280;51025;37.772;-122.432;2023-06-22T05:16:53;100989.80;;;22.87;28.30
64614;BME280;51025;37.772;-122.432;2023-06-22T05:19:21;100986.49;;;21.63;28.56
64614;BME280;51025;37.772;-122.432;2023-06-22T05:21:49;100981.37;;;22.72;28.48
64614;BME280;51025;37.772;-122.432;2023-06-22T05:24:18;100980.55;;;22.10;28.24
64614;BME280;51025;37.772;-122.432;2023-06-22T05:26:46;100983.29;;;21.83;28.72
64614;BME280;51025;37.772;-122.432;2023-06-22T05:29:15;100984.80;;;22.33;28.26
64614;BME280;51025;37.772;-122.432;2023-06-22T05:31:43;100986.05;;;21.98;28.20
64614;BME280;51025;37.772;-122.432;2023-06-22T05:34:12;100983.80;;;22.26;28.25
64614;BME280;51025;37.772;-122.432;2023-06-22T05:36:40;100978.34;;;22.21;28.19
64614;BME280;51025;37.772;-122.432;2023-06-22T05:39:12;100979.57;;;22.81;28.10
64614;BME280;51025;37.772;-122.432;2023-06-22T05:41:41;100978.75;;;21.51;28.40
64614;BME280;51025;37.772;-122.432;2023-06-22T05:44:10;100980.22;;;22.62;28.14
64614;BME280;51025;37.772;-122.432;2023-06-22T05:46:40;100987.70;;;22.22;28.02
64614;BME280;51025;37.772;-122.432;2023-06-22T05:49:09;100989.77;;;22.78;27.86
64614;BME280;51025;37.772;-122.432;2023-06-22T05:51:38;100988.79;;;22.28;27.81
64614;BME280;51025;37.772;-122.432;2023-06-22T05:54:06;100981.64;;;22.22;27.81
64614;BME280;51025;37.772;-122.432;2023-06-22T05:56:34;100986.52;;;22.38;27.91
64614;BME280;51025;37.772;-122.432;2023-06-22T05:59:03;100983.65;;;22.52;27.73
64614;BME280;51025;37.772;-122.432;2023-06-22T06:01:32;100977.22;;;21.71;27.68
64614;BME280;51025;37.772;-122.432;2023-06-22T06:04:01;100974.83;;;21.88;27.71
64614;BME280;51025;37.772;-122.432;2023-06-22T06:06:29;100979.10;;;22.11;27.56
64614;BME280;51025;37.772;-122.432;2023-06-22T06:08:58;100977.18;;;22.54;27.54
64614;BME280;51025;37.772;-122.432;2023-06-22T06:11:26;100975.64;;;21.79;27.50
64614;BME280;51025;37.772;-122.432;2023-06-22T06:13:54;100974.73;;;22.53;27.51
64614;BME280;51025;37.772;-122.432;2023-06-22T06:16:23;100971.82;;;22.42;27.60
64614;BME280;51025;37.772;-122.432;2023-06-22T06:18:51;100968.93;;;22.52;27.47
64614;BME280;51025;37.772;-122.432;2023-06-22T06:21:19;100963.47;;;21.86;27.35
64614;BME280;51025;37.772;-122.432;2023-06-22T06:23:48;100964.59;;;22.07;27.79
64614;BME280;51025;37.772;-122.432;2023-06-22T06:26:16;100962.68;;;22.00;27.46
64614;BME280;51025;37.772;-122.432;2023-06-22T06:28:46;100963.94;;;22.67;27.56
64614;BME280;51025;37.772;-122.432;2023-06-22T06:31:15;100956.16;;;22.51;27.31
64614;BME280;51025;37.772;-122.432;2023-06-22T06:33:45;100954.93;;;22.30;27.45
64614;BME280;51025;37.772;-122.432;2023-06-22T06:36:12;100955.75;;;22.02;27.61
64614;BME280;51025;37.772;-122.432;2023-06-22T06:38:40;100948.18;;;21.63;27.56
64614;BME280;51025;37.772;-122.432;2023-06-22T06:41:09;100947.48;;;22.18;27.45
64614;BME280;51025;37.772;-122.432;2023-06-22T06:43:37;100944.55;;;21.51;27.56
64614;BME280;51025;37.772;-122.432;2023-06-22T06:46:05;100946.43;;;21.89;27.24
64614;BME280;51025;37.772;-122.432;2023-06-22T06:48:34;100945.00;;;21.99;27.51
64614;BME280;51025;37.772;-122.432;2023-06-22T06:51:02;100940.27;;;22.32;27.19
64614;BME280;51025;37.772;-122.432;2023-06-22T06:53:30;100939.14;;;21.78;27.19
64614;BME280;51025;37.772;-122.432;2023-06-22T06:55:58;100935.81;;;21.69;27.15
64614;BME280;51025;37.772;-122.432;2023-06-22T06:58:26;100931.13;;;21.63;27.18
64614;BME280;51025;37.772;-122.432;2023-06-22T07:00:54;100932.14;;;21.95;27.31
64614;BME280;51025;37.772;-122.432;2023-06-22T07:03:23;100936.12;;;21.42;27.26
64614;BME280;51025;37.772;-122.432;2023-06-22T07:05:51;100939.14;;;22.06;27.07
64614;BME280;51025;37.772;-122.432;2023-06-22T07:08:20;100940.14;;;20.95;27.27
64614;BME280;51025;37.772;-122.432;2023-06-22T07:10:48;100936.43;;;21.34;27.32
64614;BME280;51025;37.772;-122.432;2023-06-22T07:13:17;100931.87;;;21.52;27.36
64614;BME280;51025;37.772;-122.432;2023-06-22T07:15:45;100935.85;;;22.02;26.98
64614;BME280;51025;37.772;-122.432;2023-06-22T07:18:14;100932.65;;;21.53;27.27
64614;BME280;51025;37.772;-122.432;2023-06-22T07:20:42;100935.98;;;21.87;27.01
64614;BME280;51025;37.772;-122.432;2023-06-22T07:23:10;100930.60;;;21.49;27.24
64614;BME280;51025;37.772;-122.432;2023-06-22T07:25:38;100926.43;;;21.78;27.13
64614;BME280;51025;37.772;-122.432;2023-06-22T07:28:07;100928.38;;;21.31;27.34
64614;BME280;51025;37.772;-122.432;2023-06-22T07:30:36;100925.61;;;21.54;27.21
64614;BME280;51025;37.772;-122.432;2023-06-22T07:33:05;100927.32;;;21.52;27.10
64614;BME280;51025;37.772;-122.432;2023-06-22T07:35:33;100926.97;;;21.58;27.06
64614;BME280;51025;37.772;-122.432;2023-06-22T07:38:02;100917.21;;;21.49;27.12
64614;BME280;51025;37.772;-122.432;2023-06-22T07:40:30;100920.16;;;20.90;27.13
64614;BME280;51025;37.772;-122.432;2023-06-22T07:42:58;100914.79;;;20.81;27.20
64614;BME280;51025;37.772;-122.432;2023-06-22T07:45:27;100910.48;;;21.79;26.69
64614;BME280;51025;37.772;-122.432;2023-06-22T07:47:55;100907.74;;;21.85;26.65
64614;BME280;51025;37.772;-122.432;2023-06-22T07:50:23;100906.14;;;20.61;26.95
64614;BME280;51025;37.772;-122.432;2023-06-22T07:52:52;100909.54;;;21.13;27.11
64614;BME280;51025;37.772;-122.432;2023-06-22T07:55:20;100903.14;;;20.68;26.76
64614;BME280;51025;37.772;-122.432;2023-06-22T07:57:49;100901.83;;;21.42;26.86
64614;BME280;51025;37.772;-122.432;2023-06-22T08:00:19;100899.97;;;21.11;27.03
64614;BME280;51025;37.772;-122.432;2023-06-22T08:02:47;100899.85;;;21.23;26.95
64614;BME280;51025;37.772;-122.432;2023-06-22T08:05:16;100900.03;;;21.22;26.91
64614;BME280;51025;37.772;-122.432;2023-06-22T08:07:44;100892.91;;;21.21;26.95
64614;BME280;51025;37.772;-122.432;2023-06-22T08:10:13;100885.79;;;21.29;26.74
64614;BME280;51025;37.772;-122.432;2023-06-22T08:12:41;100890.65;;;21.13;26.90
64614;BME280;51025;37.772;-122.432;2023-06-22T08:15:10;100891.25;;;21.47;26.62
64614;BME280;51025;37.772;-122.432;2023-06-22T08:17:39;100889.73;;;20.68;26.93
64614;BME280;51025;37.772;-122.432;2023-06-22T08:20:09;100895.73;;;21.68;26.99
64614;BME280;51025;37.772;-122.432;2023-06-22T08:22:37;100893.85;;;20.96;26.95
64614;BME280;51025;37.772;-122.432;2023-06-22T08:25:06;100892.71;;;21.51;26.48
64614;BME280;51025;37.772;-122.432;2023-06-22T08:27:35;100890.77;;;21.15;26.67
64614;BME280;51025;37.772;-122.432;2023-06-22T08:30:04;100888.91;;;21.09;26.74
64614;BME280;51025;37.772;-122.432;2023-06-22T08:32:33;100886.35;;;20.62;27.22
64614;BME280;51025;37.772;-122.432;2023-06-22T08:35:01;100889.81;;;20.94;26.90
64614;BME280;51025;37.772;-122.432;2023-06-22T08:37:29;100885.74;;;20.98;26.81
64614;BME280;51025;37.772;-122.432;2023-06-22T08:39:58;100886.62;;;21.12;26.94
64614;BME280;51025;37.772;-122.432;2023-06-22T08:42:26;100886.31;;;20.72;26.94
64614;BME280;51025;37.772;-122.432;2023-06-22T08:44:55;100885.00;;;21.18;26.77
64614;BME280;51025;37.772;-122.432;2023-06-22T08:47:23;100883.78;;;20.75;26.89
64614;BME280;51025;37.772;-122.432;2023-06-22T08:49:51;100880.17;;;21.13;26.89
64614;BME280;51025;37.772;-122.432;2023-06-22T08:52:20;100875.88;;;20.80;26.79
64614;BME280;51025;37.772;-122.432;2023-06-22T08:54:48;100879.87;;;21.22;26.73
64614;BME280;51025;37.772;-122.432;2023-06-22T08:57:17;100875.76;;;21.00;26.67
64614;BME280;51025;37.772;-122.432;2023-06-22T08:59:45;100874.11;;;20.75;26.89
64614;BME280;51025;37.772;-122.432;2023-06-22T09:02:14;100874.68;;;20.88;26.65
64614;BME280;51025;37.772;-122.432;2023-06-22T09:04:43;100876.08;;;21.13;26.74
64614;BME280;51025;37.772;-122.432;2023-06-22T09:07:11;100872.75;;;20.87;26.95
64614;BME280;51025;37.772;-122.432;2023-06-22T09:09:41;100872.78;;;20.86;26.92
64614;BME280;51025;37.772;-122.432;2023-06-22T09:12:10;100874.52;;;20.82;26.99
64614;BME280;51025;37.772;-122.432;2023-06-22T09:14:37;100870.19;;;20.79;26.96
64614;BME280;51025;37.772;-122.432;2023-06-22T09:17:06;100867.25;;;20.05;26.99
64614;BME280;51025;37.772;-122.432;2023-06-22T09:19:34;100863.20;;;20.53;26.81
64614;BME280;51025;37.772;-122.432;2023-06-22T09:22:03;100864.67;;;20.52;26.80
64614;BME280;51025;37.772;-122.432;2023-06-22T09:24:31;100862.51;;;20.46;26.82
64614;BME280;51025;37.772;-122.432;2023-06-22T09:26:59;100856.77;;;20.40;26.93
64614;BME280;51025;37.772;-122.432;2023-06-22T09:29:28;100851.55;;;20.17;26.78
64614;BME280;51025;37.772;-122.432;2023-06-22T09:31:56;100854.47;;;21.14;26.84
64614;BME280;51025;37.772;-122.432;2023-06-22T09:34:25;100856.76;;;20.09;26.74
64614;BME280;51025;37.772;-122.432;2023-06-22T09:36:52;100853.65;;;20.27;26.86
64614;BME280;51025;37.772;-122.432;2023-06-22T09:39:21;100859.96;;;20.46;26.69
64614;BME280;51025;37.772;-122.432;2023-06-22T09:41:49;100854.98;;;20.89;26.63
64614;BME280;51025;37.772;-122.432;2023-06-22T09:44:18;100855.05;;;20.38;26.71
64614;BME280;51025;37.772;-122.432;2023-06-22T09:46:46;100854.68;;;21.19;26.63
64614;BME280;51025;37.772;-122.432;2023-06-22T09:49:15;100854.39;;;21.08;26.74
64614;BME280;51025;37.772;-122.432;2023-06-22T09:51:43;100855.19;;;20.53;26.85
64614;BME280;51025;37.772;-122.432;2023-06-22T09:54:11;100854.20;;;20.29;26.80
64614;BME280;51025;37.772;-122.432;2023-06-22T09:56:40;100852.39;;;21.08;26.70
64614;BME280;51025;37.772;-122.432;2023-06-22T09:59:08;100850.17;;;20.62;26.75
64614;BME280;51025;37.772;-122.432;2023-06-22T10:01:36;100844.55;;;20.42;26.87
64614;BME280;51025;37.772;-122.432;2023-06-22T10:04:05;100848.39;;;20.95;26.71
64614;BME280;51025;37.772;-122.432;2023-06-22T10:06:32;100849.90;;;21.03;26.65
64614;BME280;51025;37.772;-122.432;2023-06-22T10:09:01;100848.64;;;20.30;26.68
64614;BME280;51025;37.772;-122.432;2023-06-22T10:11:28;100839.47;;;20.29;26.67
64614;BME280;51025;37.772;-122.432;2023-06-22T10:13:57;100841.80;;;20.85;26.72
64614;BME280;51025;37.772;-122.432;2023-06-22T10:16:30;100844.55;;;20.29;26.60
64614;BME280;51025;37.772;-122.432;2023-06-22T10:18:58;100841.48;;;20.87;26.71
64614;BME280;51025;37.772;-122.432;2023-06-22T10:21:26;100841.14;;;19.64;26.73
64614;BME280;51025;37.772;-122.432;2023-06-22T10:23:55;100842.01;;;20.04;26.73
64614;BME280;51025;37.772;-122.432;2023-06-22T10:26:23;100847.85;;;19.85;26.55
64614;BME280;51025;37.772;-122.432;2023-06-22T10:28:51;100846.32;;;20.14;26.64
64614;BME280;51025;37.772;-122.432;2023-06-22T10:31:30;100846.59;;;21.02;26.49
64614;BME280;51025;37.772;-122.432;2023-06-22T10:33:58;100849.95;;;21.01;26.52
64614;BME280;51025;37.772;-122.432;2023-06-22T10:36:26;100850.53;;;20.22;26.60
64614;BME280;51025;37.772;-122.432;2023-06-22T10:38:54;100851.09;;;20.81;26.64
64614;BME280;51025;37.772;-122.432;2023-06-22T10:41:22;100849.89;;;20.31;26.48
64614;BME280;51025;37.772;-122.432;2023-06-22T10:43:50;100849.18;;;20.67;26.45
64614;BME280;51025;37.772;-122.432;2023-06-22T10:46:18;100846.79;;;20.34;26.38
64614;BME280;51025;37.772;-122.432;2023-06-22T10:48:46;100845.05;;;20.72;26.37
64614;BME280;51025;37.772;-122.432;2023-06-22T10:51:14;100841.07;;;20.11;26.56
64614;BME280;51025;37.772;-122.432;2023-06-22T10:53:43;100842.42;;;20.87;26.50
64614;BME280;51025;37.772;-122.432;2023-06-22T10:56:11;100840.13;;;20.54;26.48
64614;BME280;51025;37.772;-122.432;2023-06-22T10:58:39;100841.77;;;20.49;26.48
64614;BME280;51025;37.772;-122.432;2023-06-22T11:01:07;100840.27;;;20.88;26.47
64614;BME280;51025;37.772;-122.432;2023-06-22T11:03:35;100837.51;;;20.84;26.47
64614;BME280;51025;37.772;-122.432;2023-06-22T11:06:04;100839.61;;;20.35;26.58
64614;BME280;51025;37.772;-122.432;2023-06-22T11:08:31;100842.72;;;20.51;26.48
64614;BME280;51025;37.772;-122.432;2023-06-22T11:11:00;100838.59;;;20.80;26.48
64614;BME280;51025;37.772;-122.432;2023-06-22T11:13:28;100832.39;;;20.65;26.54
64614;BME280;51025;37.772;-122.432;2023-06-22T11:15:56;100830.51;;;20.67;26.50
64614;BME280;51025;37.772;-122.432;2023-06-22T11:18:24;100828.51;;;19.51;26.53
64614;BME280;51025;37.772;-122.432;2023-06-22T11:20:53;100825.38;;;20.61;26.54
64614;BME280;51025;37.772;-122.432;2023-06-22T11:23:21;100822.77;;;20.05;26.40
64614;BME280;51025;37.772;-122.432;2023-06-22T11:25:49;100822.76;;;20.22;26.51
64614;BME280;51025;37.772;-122.432;2023-06-22T11:28:17;100823.16;;;20.86;26.28
64614;BME280;51025;37.772;-122.432;2023-06-22T11:30:45;100824.21;;;20.66;26.45
64614;BME280;51025;37.772;-122.432;2023-06-22T11:33:14;100820.49;;;21.01;26.51
64614;BME280;51025;37.772;-122.432;2023-06-22T11:35:42;100821.77;;;20.56;26.52
64614;BME280;51025;37.772;-122.432;2023-06-22T11:38:11;100821.23;;;20.43;26.62
64614;BME280;51025;37.772;-122.432;2023-06-22T11:40:39;100821.00;;;20.10;26.56
64614;BME280;51025;37.772;-122.432;2023-06-22T11:43:07;100821.51;;;21.03;26.45
64614;BME280;51025;37.772;-122.432;2023-06-22T11:45:35;100820.47;;;20.50;26.52
64614;BME280;51025;37.772;-122.432;2023-06-22T11:48:04;100819.67;;;20.50;26.45
64614;BME280;51025;37.772;-122.432;2023-06-22T11:50:32;100820.11;;;19.70;26.53
64614;BME280;51025;37.772;-122.432;2023-06-22T11:53:00;100822.52;;;20.52;26.46
64614;BME280;51025;37.772;-122.432;2023-06-22T11:55:29;100818.27;;;19.66;26.57
64614;BME280;51025;37.772;-122.432;2023-06-22T11:57:57;100817.86;;;20.38;26.53
64614;BME280;51025;37.772;-122.432;2023-06-22T12:00:26;100817.36;;;18.97;26.44
64614;BME280;51025;37.772;-122.432;2023-06-22T12:02:55;100817.94;;;20.21;26.36
64614;BME280;51025;37.772;-122.432;2023-06-22T12:05:23;100822.06;;;19.41;26.39
64614;BME280;51025;37.772;-122.432;2023-06-22T12:07:53;100821.33;;;20.83;26.49
64614;BME280;51025;37.772;-122.432;2023-06-22T12:10:22;100822.80;;;19.65;26.51
64614;BME280;51025;37.772;-122.432;2023-06-22T12:12:50;100817.98;;;20.34;26.54
64614;BME280;51025;37.772;-122.432;2023-06-22T12:15:19;100817.43;;;20.12;26.39
64614;BME280;51025;37.772;-122.432;2023-06-22T12:17:47;100813.32;;;20.37;26.51
64614;BME280;51025;37.772;-122.432;2023-06-22T12:20:16;100812.19;;;20.45;26.36
64614;BME280;51025;37.772;-122.432;2023-06-22T12:22:45;100817.37;;;20.37;26.44
64614;BME280;51025;37.772;-122.432;2023-06-22T12:25:13;100816.73;;;20.32;26.46
64614;BME280;51025;37.772;-122.432;2023-06-22T12:27:41;100823.62;;;20.41;26.41